sensor_id;sensor_type;location;lat;lon;timestamp;temperature;humidity
13433;DHT22;6789;47.678;9.158;2023-02-08T00:01:58;-1.10;99.90
13433;DHT22;6789;47.678;9.158;2023-02-08T00:06:49;-1.10;99.90
13433;DHT22;6789;47.678;9.158;2023-02-08T00:11:41;-1.20;99.90
13433;DHT22;6789;47.678;9.158;2023-02-08T00:16:33;-1.50;99.90
13433;DHT22;6789;47.678;9.158;2023-02-08T00:21:25;-1.70;99.90
13433;DHT22;6789;47.678;9.158;2023-02-08T00:26:18;-1.50;99.90
13433;DHT22;6789;47.678;9.158;2023-02-08T00:31:10;-1.40;99.90
13433;DHT22;6789;47.678;9.158;2023-02-08T00:36:04;-1.60;99.90
13433;DHT22;6789;47.678;9.158;2023-02-08T00:40:58;-1.50;99.90
13433;DHT22;6789;47.678;9.158;2023-02-08T00:45:59;-1.40;99.90
13433;DHT22;6789;47.678;9.158;2023-02-08T00:51:03;-1.50;99.90
13433;DHT22;6789;47.678;9.158;2023-02-08T00:55:55;-1.60;99.90
13433;DHT22;6789;47.678;9.158;2023-02-08T01:00:50;-1.60;99.90
13433;DHT22;6789;47.678;9.158;2023-02-08T01:05:43;-1.60;99.90
13433;DHT22;6789;47.678;9.158;2023-02-08T01:10:35;-1.60;99.90
13433;DHT22;6789;47.678;9.158;2023-02-08T01:15:26;-1.70;99.90
13433;DHT22;6789;47.678;9.158;2023-02-08T01:20:18;-1.70;99.90
13433;DHT22;6789;47.678;9.158;2023-02-08T01:25:10;-1.80;99.90
13433;DHT22;6789;47.678;9.158;2023-02-08T01:30:03;-1.80;99.90
13433;DHT22;6789;47.678;9.158;2023-02-08T01:34:55;-1.80;99.90
13433;DHT22;6789;47.678;9.158;2023-02-08T01:39:47;-1.80;99.90
13433;DHT22;6789;47.678;9.158;2023-02-08T01:50:13;-1.70;99.90
13433;DHT22;6789;47.678;9.158;2023-02-08T01:55:15;-1.60;99.90
13433;DHT22;6789;47.678;9.158;2023-02-08T02:00:18;-1.70;99.90
13433;DHT22;6789;47.678;9.158;2023-02-08T02:05:12;-1.70;99.90
13433;DHT22;6789;47.678;9.158;2023-02-08T02:10:09;-1.80;99.90
13433;DHT22;6789;47.678;9.158;2023-02-08T02:15:05;-1.80;99.90
13433;DHT22;6789;47.678;9.158;2023-02-08T02:30:41;-1.90;99.90
13433;DHT22;6789;47.678;9.158;2023-02-08T02:35:57;-1.90;99.90
13433;DHT22;6789;47.678;9.158;2023-02-08T02:51:38;-2.10;99.90
13433;DHT22;6789;47.678;9.158;2023-02-08T02:56:38;-2.10;99.90
13433;DHT22;6789;47.678;9.158;2023-02-08T03:01:34;-2.10;99.90
13433;DHT22;6789;47.678;9.158;2023-02-08T03:17:33;-2.20;99.90
13433;DHT22;6789;47.678;9.158;2023-02-08T03:23:18;-2.20;99.90
13433;DHT22;6789;47.678;9.158;2023-02-08T03:28:30;-2.20;99.90
13433;DHT22;6789;47.678;9.158;2023-02-08T03:33:56;-2.10;99.90
13433;DHT22;6789;47.678;9.158;2023-02-08T03:38:53;-2.10;99.90
13433;DHT22;6789;47.678;9.158;2023-02-08T03:43:59;-2.20;99.90
13433;DHT22;6789;47.678;9.158;2023-02-08T03:49:03;-2.20;99.90
13433;DHT22;6789;47.678;9.158;2023-02-08T03:54:01;-2.20;99.90
13433;DHT22;6789;47.678;9.158;2023-02-08T03:59:03;-2.10;99.90
13433;DHT22;6789;47.678;9.158;2023-02-08T04:03:59;-2.20;99.90
13433;DHT22;6789;47.678;9.158;2023-02-08T04:08:51;-2.20;99.90
13433;DHT22;6789;47.678;9.158;2023-02-08T04:13:44;-2.20;99.90
13433;DHT22;6789;47.678;9.158;2023-02-08T04:18:35;-2.20;99.90
13433;DHT22;6789;47.678;9.158;2023-02-08T04:23:27;-2.20;99.90
13433;DHT22;6789;47.678;9.158;2023-02-08T04:28:19;-2.40;99.90
13433;DHT22;6789;47.678;9.158;2023-02-08T04:33:10;-2.30;99.90
13433;DHT22;6789;47.678;9.158;2023-02-08T04:38:05;-2.40;99.90
13433;DHT22;6789;47.678;9.158;2023-02-08T04:42:56;-2.30;99.90
13433;DHT22;6789;47.678;9.158;2023-02-08T04:47:48;-2.40;99.90
13433;DHT22;6789;47.678;9.158;2023-02-08T04:52:40;-2.30;99.90
13433;DHT22;6789;47.678;9.158;2023-02-08T04:57:31;-2.30;99.90
13433;DHT22;6789;47.678;9.158;2023-02-08T05:02:23;-2.20;99.90
13433;DHT22;6789;47.678;9.158;2023-02-08T05:07:17;-2.40;99.90
13433;DHT22;6789;47.678;9.158;2023-02-08T05:12:09;-2.50;99.90
13433;DHT22;6789;47.678;9.158;2023-02-08T05:17:01;-2.70;99.90
13433;DHT22;6789;47.678;9.158;2023-02-08T05:21:53;-2.80;99.90
13433;DHT22;6789;47.678;9.158;2023-02-08T05:26:45;-2.90;99.90
13433;DHT22;6789;47.678;9.158;2023-02-08T05:31:37;-3.00;99.90
13433;DHT22;6789;47.678;9.158;2023-02-08T05:36:30;-2.90;99.90
13433;DHT22;6789;47.678;9.158;2023-02-08T05:41:23;-3.00;99.90
13433;DHT22;6789;47.678;9.158;2023-02-08T05:46:15;-2.90;99.90
13433;DHT22;6789;47.678;9.158;2023-02-08T05:51:07;-2.80;99.90
13433;DHT22;6789;47.678;9.158;2023-02-08T05:56:00;-2.80;99.90
13433;DHT22;6789;47.678;9.158;2023-02-08T06:00:52;-2.80;99.90
13433;DHT22;6789;47.678;9.158;2023-02-08T06:05:45;-2.70;99.90
13433;DHT22;6789;47.678;9.158;2023-02-08T06:10:37;-2.70;99.90
13433;DHT22;6789;47.678;9.158;2023-02-08T06:15:43;-2.70;99.90
13433;DHT22;6789;47.678;9.158;2023-02-08T06:20:36;-2.80;99.90
13433;DHT22;6789;47.678;9.158;2023-02-08T06:25:33;-2.80;99.90
13433;DHT22;6789;47.678;9.158;2023-02-08T06:30:27;-2.80;99.90
13433;DHT22;6789;47.678;9.158;2023-02-08T06:35:33;-2.70;99.90
13433;DHT22;6789;47.678;9.158;2023-02-08T06:40:29;-2.80;99.90
13433;DHT22;6789;47.678;9.158;2023-02-08T06:45:23;-2.70;99.90
13433;DHT22;6789;47.678;9.158;2023-02-08T06:50:15;-2.70;99.90
13433;DHT22;6789;47.678;9.158;2023-02-08T06:55:07;-2.70;99.90
13433;DHT22;6789;47.678;9.158;2023-02-08T07:00:13;-2.70;99.90
13433;DHT22;6789;47.678;9.158;2023-02-08T07:05:07;-2.70;99.90
13433;DHT22;6789;47.678;9.158;2023-02-08T07:10:01;-2.60;99.90
13433;DHT22;6789;47.678;9.158;2023-02-08T07:14:55;-2.60;99.90
13433;DHT22;6789;47.678;9.158;2023-02-08T07:19:48;-2.60;99.90
13433;DHT22;6789;47.678;9.158;2023-02-08T07:24:55;-2.60;99.90
13433;DHT22;6789;47.678;9.158;2023-02-08T07:29:48;-2.60;99.90
13433;DHT22;6789;47.678;9.158;2023-02-08T07:34:53;-2.40;99.90
13433;DHT22;6789;47.678;9.158;2023-02-08T07:39:46;-2.30;99.90
13433;DHT22;6789;47.678;9.158;2023-02-08T07:44:40;-2.30;99.90
13433;DHT22;6789;47.678;9.158;2023-02-08T07:49:33;-2.50;99.90
13433;DHT22;6789;47.678;9.158;2023-02-08T07:54:26;-2.40;99.90
13433;DHT22;6789;47.678;9.158;2023-02-08T07:59:18;-2.20;99.90
13433;DHT22;6789;47.678;9.158;2023-02-08T08:04:10;-2.10;99.90
13433;DHT22;6789;47.678;9.158;2023-02-08T08:09:03;-2.00;99.90
13433;DHT22;6789;47.678;9.158;2023-02-08T08:13:56;-2.10;99.90
13433;DHT22;6789;47.678;9.158;2023-02-08T08:19:02;-2.00;99.90
13433;DHT22;6789;47.678;9.158;2023-02-08T08:24:08;-2.00;99.90
13433;DHT22;6789;47.678;9.158;2023-02-08T08:29:01;-1.90;99.90
13433;DHT22;6789;47.678;9.158;2023-02-08T08:33:54;-1.90;99.90
13433;DHT22;6789;47.678;9.158;2023-02-08T08:38:47;-1.80;99.90
13433;DHT22;6789;47.678;9.158;2023-02-08T08:43:39;-1.90;99.90
13433;DHT22;6789;47.678;9.158;2023-02-08T08:48:34;-1.70;99.90
13433;DHT22;6789;47.678;9.158;2023-02-08T08:54:12;-1.50;99.90
13433;DHT22;6789;47.678;9.158;2023-02-08T08:59:18;-1.40;99.90
13433;DHT22;6789;47.678;9.158;2023-02-08T09:04:24;-1.30;99.90
13433;DHT22;6789;47.678;9.158;2023-02-08T09:09:30;-1.10;99.90
13433;DHT22;6789;47.678;9.158;2023-02-08T09:14:35;-1.20;99.90
13433;DHT22;6789;47.678;9.158;2023-02-08T09:19:32;-1.00;99.90
13433;DHT22;6789;47.678;9.158;2023-02-08T09:24:37;-0.80;99.90
13433;DHT22;6789;47.678;9.158;2023-02-08T09:29:30;-0.50;99.90
13433;DHT22;6789;47.678;9.158;2023-02-08T09:34:38;-0.50;99.90
13433;DHT22;6789;47.678;9.158;2023-02-08T09:39:46;-0.50;99.90
13433;DHT22;6789;47.678;9.158;2023-02-08T09:50:33;-0.30;99.90
13433;DHT22;6789;47.678;9.158;2023-02-08T09:56:05;0.00;99.90
13433;DHT22;6789;47.678;9.158;2023-02-08T10:01:06;0.00;99.90
13433;DHT22;6789;47.678;9.158;2023-02-08T10:06:23;-0.10;99.90
13433;DHT22;6789;47.678;9.158;2023-02-08T10:17:30;0.40;99.90
13433;DHT22;6789;47.678;9.158;2023-02-08T10:28:56;0.90;99.90
13433;DHT22;6789;47.678;9.158;2023-02-08T10:35:08;0.80;99.90
13433;DHT22;6789;47.678;9.158;2023-02-08T10:45:40;1.10;99.90
13433;DHT22;6789;47.678;9.158;2023-02-08T10:51:12;1.10;99.90
13433;DHT22;6789;47.678;9.158;2023-02-08T11:01:37;1.20;99.90
13433;DHT22;6789;47.678;9.158;2023-02-08T11:06:50;1.10;99.90
13433;DHT22;6789;47.678;9.158;2023-02-08T11:12:00;1.20;99.90
13433;DHT22;6789;47.678;9.158;2023-02-08T11:17:27;1.20;99.90
13433;DHT22;6789;47.678;9.158;2023-02-08T11:22:28;1.20;99.90
13433;DHT22;6789;47.678;9.158;2023-02-08T11:27:47;1.50;99.90
13433;DHT22;6789;47.678;9.158;2023-02-08T11:33:15;2.00;99.90
13433;DHT22;6789;47.678;9.158;2023-02-08T11:38:25;2.00;99.90
13433;DHT22;6789;47.678;9.158;2023-02-08T11:43:33;2.10;99.90
13433;DHT22;6789;47.678;9.158;2023-02-08T11:48:48;2.00;99.90
13433;DHT22;6789;47.678;9.158;2023-02-08T11:53:50;2.20;99.90
13433;DHT22;6789;47.678;9.158;2023-02-08T11:59:23;2.20;99.90
13433;DHT22;6789;47.678;9.158;2023-02-08T12:04:32;1.70;99.90
13433;DHT22;6789;47.678;9.158;2023-02-08T12:21:03;2.30;99.90
13433;DHT22;6789;47.678;9.158;2023-02-08T12:38:46;2.50;99.90
13433;DHT22;6789;47.678;9.158;2023-02-08T12:44:49;2.70;99.90
13433;DHT22;6789;47.678;9.158;2023-02-08T12:50:34;2.90;99.90
13433;DHT22;6789;47.678;9.158;2023-02-08T12:55:49;2.80;99.90
13433;DHT22;6789;47.678;9.158;2023-02-08T13:00:47;3.00;99.90
13433;DHT22;6789;47.678;9.158;2023-02-08T13:05:48;3.00;99.90
13433;DHT22;6789;47.678;9.158;2023-02-08T13:11:00;3.30;99.90
13433;DHT22;6789;47.678;9.158;2023-02-08T13:16:24;3.40;99.90
13433;DHT22;6789;47.678;9.158;2023-02-08T13:21:35;3.50;99.90
13433;DHT22;6789;47.678;9.158;2023-02-08T13:26:50;3.20;99.90
13433;DHT22;6789;47.678;9.158;2023-02-08T13:32:00;3.30;99.90
13433;DHT22;6789;47.678;9.158;2023-02-08T13:37:03;3.40;99.90
13433;DHT22;6789;47.678;9.158;2023-02-08T13:42:25;3.50;99.90
13433;DHT22;6789;47.678;9.158;2023-02-08T13:47:33;3.50;99.90
13433;DHT22;6789;47.678;9.158;2023-02-08T13:57:52;3.40;99.90
13433;DHT22;6789;47.678;9.158;2023-02-08T14:14:05;4.00;99.90
13433;DHT22;6789;47.678;9.158;2023-02-08T14:19:22;3.70;99.90
13433;DHT22;6789;47.678;9.158;2023-02-08T14:29:41;3.60;99.90
13433;DHT22;6789;47.678;9.158;2023-02-08T14:34:38;3.60;99.90
13433;DHT22;6789;47.678;9.158;2023-02-08T14:39:45;3.70;99.90
13433;DHT22;6789;47.678;9.158;2023-02-08T14:44:57;3.70;99.90
13433;DHT22;6789;47.678;9.158;2023-02-08T14:50:34;3.80;99.90
13433;DHT22;6789;47.678;9.158;2023-02-08T14:55:40;3.60;99.90
13433;DHT22;6789;47.678;9.158;2023-02-08T15:00:40;3.70;99.90
13433;DHT22;6789;47.678;9.158;2023-02-08T15:11:27;3.50;99.90
13433;DHT22;6789;47.678;9.158;2023-02-08T15:16:41;3.50;99.90
13433;DHT22;6789;47.678;9.158;2023-02-08T15:21:48;3.50;99.90
13433;DHT22;6789;47.678;9.158;2023-02-08T15:26:56;3.60;99.90
13433;DHT22;6789;47.678;9.158;2023-02-08T15:32:13;3.60;99.90
13433;DHT22;6789;47.678;9.158;2023-02-08T15:37:29;3.40;99.90
13433;DHT22;6789;47.678;9.158;2023-02-08T15:42:42;3.30;99.90
13433;DHT22;6789;47.678;9.158;2023-02-08T15:47:49;3.20;99.90
13433;DHT22;6789;47.678;9.158;2023-02-08T15:53:02;3.10;99.90
13433;DHT22;6789;47.678;9.158;2023-02-08T16:03:33;2.70;99.90
13433;DHT22;6789;47.678;9.158;2023-02-08T16:08:42;2.60;99.90
13433;DHT22;6789;47.678;9.158;2023-02-08T16:13:38;2.40;99.90
13433;DHT22;6789;47.678;9.158;2023-02-08T16:29:37;2.00;99.90
13433;DHT22;6789;47.678;9.158;2023-02-08T16:34:45;1.80;99.90
13433;DHT22;6789;47.678;9.158;2023-02-08T16:39:53;1.60;99.90
13433;DHT22;6789;47.678;9.158;2023-02-08T16:49:59;1.30;99.90
13433;DHT22;6789;47.678;9.158;2023-02-08T16:54:53;1.10;99.90
13433;DHT22;6789;47.678;9.158;2023-02-08T17:00:00;1.00;99.90
13433;DHT22;6789;47.678;9.158;2023-02-08T17:04:54;0.80;99.90
13433;DHT22;6789;47.678;9.158;2023-02-08T17:10:00;0.80;99.90
13433;DHT22;6789;47.678;9.158;2023-02-08T17:15:06;0.80;99.90
13433;DHT22;6789;47.678;9.158;2023-02-08T17:19:59;0.80;99.90
13433;DHT22;6789;47.678;9.158;2023-02-08T17:24:53;0.90;99.90
13433;DHT22;6789;47.678;9.158;2023-02-08T17:29:59;0.90;99.90
13433;DHT22;6789;47.678;9.158;2023-02-08T17:34:51;1.00;99.90
13433;DHT22;6789;47.678;9.158;2023-02-08T17:39:44;1.00;99.90
13433;DHT22;6789;47.678;9.158;2023-02-08T17:44:37;1.00;99.90
13433;DHT22;6789;47.678;9.158;2023-02-08T17:49:42;1.00;99.90
13433;DHT22;6789;47.678;9.158;2023-02-08T17:54:36;0.90;99.90
13433;DHT22;6789;47.678;9.158;2023-02-08T17:59:29;0.80;99.90
13433;DHT22;6789;47.678;9.158;2023-02-08T18:04:35;0.60;99.90
13433;DHT22;6789;47.678;9.158;2023-02-08T18:09:27;0.20;99.90
13433;DHT22;6789;47.678;9.158;2023-02-08T18:14:23;0.00;99.90
13433;DHT22;6789;47.678;9.158;2023-02-08T18:19:15;-0.10;99.90
13433;DHT22;6789;47.678;9.158;2023-02-08T18:24:09;-0.30;99.90
13433;DHT22;6789;47.678;9.158;2023-02-08T18:29:01;-0.30;99.90
13433;DHT22;6789;47.678;9.158;2023-02-08T18:33:54;-0.40;99.90
13433;DHT22;6789;47.678;9.158;2023-02-08T18:38:50;-0.40;99.90
13433;DHT22;6789;47.678;9.158;2023-02-08T18:43:58;-0.50;99.90
13433;DHT22;6789;47.678;9.158;2023-02-08T18:48:51;-0.60;99.90
13433;DHT22;6789;47.678;9.158;2023-02-08T18:53:47;-0.60;99.90
13433;DHT22;6789;47.678;9.158;2023-02-08T18:58:42;-0.60;99.90
13433;DHT22;6789;47.678;9.158;2023-02-08T19:03:37;-0.60;99.90
13433;DHT22;6789;47.678;9.158;2023-02-08T19:08:31;-0.60;99.90
13433;DHT22;6789;47.678;9.158;2023-02-08T19:13:26;-0.60;99.90
13433;DHT22;6789;47.678;9.158;2023-02-08T19:18:20;-0.30;99.90
13433;DHT22;6789;47.678;9.158;2023-02-08T19:23:13;-0.20;99.90
13433;DHT22;6789;47.678;9.158;2023-02-08T19:28:08;-0.20;99.90
13433;DHT22;6789;47.678;9.158;2023-02-08T19:33:01;-0.20;99.90
13433;DHT22;6789;47.678;9.158;2023-02-08T19:37:53;-0.10;99.90
13433;DHT22;6789;47.678;9.158;2023-02-08T19:42:45;-0.10;99.90
13433;DHT22;6789;47.678;9.158;2023-02-08T19:47:40;-0.10;99.90
13433;DHT22;6789;47.678;9.158;2023-02-08T19:52:42;-0.20;99.90
13433;DHT22;6789;47.678;9.158;2023-02-08T19:57:37;-0.20;99.90
13433;DHT22;6789;47.678;9.158;2023-02-08T20:02:31;-0.20;99.90
13433;DHT22;6789;47.678;9.158;2023-02-08T20:07:24;-0.30;99.90
13433;DHT22;6789;47.678;9.158;2023-02-08T20:12:16;-0.30;99.90
13433;DHT22;6789;47.678;9.158;2023-02-08T20:17:10;-0.30;99.90
13433;DHT22;6789;47.678;9.158;2023-02-08T20:22:02;-0.30;99.90
13433;DHT22;6789;47.678;9.158;2023-02-08T20:27:02;-0.40;99.90
13433;DHT22;6789;47.678;9.158;2023-02-08T20:31:54;-0.40;99.90
13433;DHT22;6789;47.678;9.158;2023-02-08T20:36:48;-0.50;99.90
13433;DHT22;6789;47.678;9.158;2023-02-08T20:41:57;-0.60;99.90
13433;DHT22;6789;47.678;9.158;2023-02-08T20:46:53;-0.60;99.90
13433;DHT22;6789;47.678;9.158;2023-02-08T20:51:45;-0.60;99.90
13433;DHT22;6789;47.678;9.158;2023-02-08T20:56:38;-0.60;99.90
13433;DHT22;6789;47.678;9.158;2023-02-08T21:01:31;-0.70;99.90
13433;DHT22;6789;47.678;9.158;2023-02-08T21:06:28;-0.80;99.90
13433;DHT22;6789;47.678;9.158;2023-02-08T21:11:24;-0.80;99.90
13433;DHT22;6789;47.678;9.158;2023-02-08T21:16:19;-0.90;99.90
13433;DHT22;6789;47.678;9.158;2023-02-08T21:21:13;-1.00;99.90
13433;DHT22;6789;47.678;9.158;2023-02-08T21:26:06;-1.20;99.90
13433;DHT22;6789;47.678;9.158;2023-02-08T21:31:07;-1.30;99.90
13433;DHT22;6789;47.678;9.158;2023-02-08T21:36:05;-1.50;99.90
13433;DHT22;6789;47.678;9.158;2023-02-08T21:41:13;-1.70;99.90
13433;DHT22;6789;47.678;9.158;2023-02-08T21:46:07;-1.70;99.90
13433;DHT22;6789;47.678;9.158;2023-02-08T21:51:04;-1.80;99.90
13433;DHT22;6789;47.678;9.158;2023-02-08T21:56:14;-1.90;99.90
13433;DHT22;6789;47.678;9.158;2023-02-08T22:01:07;-1.90;99.90
13433;DHT22;6789;47.678;9.158;2023-02-08T22:05:59;-2.00;99.90
13433;DHT22;6789;47.678;9.158;2023-02-08T22:10:53;-2.00;99.90
13433;DHT22;6789;47.678;9.158;2023-02-08T22:15:49;-2.00;99.90
13433;DHT22;6789;47.678;9.158;2023-02-08T22:20:41;-2.00;99.90
13433;DHT22;6789;47.678;9.158;2023-02-08T22:25:37;-2.10;99.90
13433;DHT22;6789;47.678;9.158;2023-02-08T22:30:29;-2.00;99.90
13433;DHT22;6789;47.678;9.158;2023-02-08T22:35:22;-2.10;99.90
13433;DHT22;6789;47.678;9.158;2023-02-08T22:40:18;-2.10;99.90
13433;DHT22;6789;47.678;9.158;2023-02-08T22:45:11;-2.20;99.90
13433;DHT22;6789;47.678;9.158;2023-02-08T22:50:04;-2.20;99.90
13433;DHT22;6789;47.678;9.158;2023-02-08T22:54:56;-2.30;99.90
13433;DHT22;6789;47.678;9.158;2023-02-08T22:59:53;-2.40;99.90
13433;DHT22;6789;47.678;9.158;2023-02-08T23:04:45;-2.50;99.90
13433;DHT22;6789;47.678;9.158;2023-02-08T23:09:37;-2.60;99.90
13433;DHT22;6789;47.678;9.158;2023-02-08T23:14:29;-2.60;99.90
13433;DHT22;6789;47.678;9.158;2023-02-08T23:19:39;-2.60;99.90
13433;DHT22;6789;47.678;9.158;2023-02-08T23:24:31;-2.60;99.90
13433;DHT22;6789;47.678;9.158;2023-02-08T23:29:23;-2.70;99.90
13433;DHT22;6789;47.678;9.158;2023-02-08T23:34:17;-2.60;99.90
13433;DHT22;6789;47.678;9.158;2023-02-08T23:39:09;-2.60;99.90
13433;DHT22;6789;47.678;9.158;2023-02-08T23:44:04;-2.60;99.90
13433;DHT22;6789;47.678;9.158;2023-02-08T23:48:56;-2.70;99.90
13433;DHT22;6789;47.678;9.158;2023-02-08T23:53:50;-2.70;99.90
13433;DHT22;6789;47.678;9.158;2023-02-08T23:58:45;-2.60;99.90
